createdAt,value
2022-10-16T00:01:40.891Z,101661.36
2022-10-16T00:04:13.625Z,101665.18
2022-10-16T00:06:45.778Z,101660.10
2022-10-16T00:09:18.602Z,101661.35
2022-10-16T00:11:51.696Z,101665.33
2022-10-16T00:14:23.890Z,101668.55
2022-10-16T00:16:56.105Z,101669.67
2022-10-16T00:19:28.358Z,101668.67
2022-10-16T00:22:00.478Z,101668.73
2022-10-16T00:24:32.946Z,101666.89
2022-10-16T00:27:05.157Z,101669.01
2022-10-16T00:29:37.282Z,101672.70
2022-10-16T00:32:09.601Z,101672.77
2022-10-16T00:34:41.709Z,101673.06
2022-10-16T00:37:13.894Z,101679.90
2022-10-16T00:39:46.116Z,101676.69
2022-10-16T00:42:20.708Z,101679.13
2022-10-16T00:44:56.810Z,101678.70
2022-10-16T00:47:33.660Z,101683.56
2022-10-16T00:50:10.209Z,101675.83
2022-10-16T00:52:46.786Z,101676.60
2022-10-16T00:55:19.157Z,101679.04
2022-10-16T00:57:52.312Z,101680.08
2022-10-16T01:00:28.926Z,101677.70
2022-10-16T01:03:03.124Z,101673.49
2022-10-16T01:05:41.856Z,101671.23
2022-10-16T01:08:21.077Z,101668.87
2022-10-16T01:11:00.151Z,101664.46
2022-10-16T01:13:39.605Z,101668.92
2022-10-16T01:16:16.839Z,101667.75
2022-10-16T01:18:54.784Z,101668.98
2022-10-16T01:21:31.423Z,101671.86
2022-10-16T01:24:11.189Z,101675.14
2022-10-16T01:26:54.606Z,101680.54
2022-10-16T01:29:30.250Z,101684.79
2022-10-16T01:32:07.424Z,101685.64
2022-10-16T01:34:44.426Z,101687.64
2022-10-16T01:37:24.098Z,101687.65
2022-10-16T01:40:01.358Z,101687.88
2022-10-16T01:42:38.024Z,101692.04
2022-10-16T01:45:15.419Z,101695.05
2022-10-16T01:47:49.229Z,101696.09
2022-10-16T01:50:23.157Z,101694.23
2022-10-16T01:52:59.788Z,101696.77
2022-10-16T01:55:35.365Z,101699.36
2022-10-16T01:58:10.635Z,101700.11
2022-10-16T02:00:47.487Z,101708.96
2022-10-16T02:03:21.965Z,101709.89
2022-10-16T02:05:57.863Z,101712.63
2022-10-16T02:08:32.987Z,101709.31
2022-10-16T02:11:05.360Z,101711.16
2022-10-16T02:13:41.912Z,101716.95
2022-10-16T02:16:15.847Z,101718.84
2022-10-16T02:18:48.112Z,101716.85
2022-10-16T02:21:28.777Z,101717.77
2022-10-16T02:24:10.452Z,101722.78
2022-10-16T02:26:51.240Z,101724.23
2022-10-16T02:29:27.894Z,101725.23
2022-10-16T02:32:04.387Z,101727.36
2022-10-16T02:34:39.122Z,101729.38
2022-10-16T02:37:11.825Z,101729.81
2022-10-16T02:39:44.706Z,101718.63
2022-10-16T02:42:19.849Z,101726.56
2022-10-16T02:44:51.960Z,101732.27
2022-10-16T02:47:24.223Z,101729.67
2022-10-16T02:49:56.806Z,101729.00
2022-10-16T02:52:29.276Z,101726.50
2022-10-16T02:55:01.861Z,101727.25
2022-10-16T02:57:37.953Z,101729.12
2022-10-16T03:00:13.817Z,101730.90
2022-10-16T03:02:44.431Z,101730.55
2022-10-16T03:05:17.782Z,101735.02
2022-10-16T03:07:50.173Z,101734.94
2022-10-16T03:10:22.310Z,101741.34
2022-10-16T03:12:54.456Z,101738.88
2022-10-16T03:15:27.023Z,101745.38
2022-10-16T03:17:59.785Z,101752.42
2022-10-16T03:20:31.882Z,101748.90
2022-10-16T03:23:04.178Z,101751.33
2022-10-16T03:25:36.369Z,101756.70
2022-10-16T03:28:09.005Z,101758.55
2022-10-16T03:30:41.831Z,101755.42
2022-10-16T03:33:14.305Z,101757.52
2022-10-16T03:35:55.163Z,101755.79
2022-10-16T03:38:27.330Z,101756.23
2022-10-16T03:40:59.421Z,101756.19
2022-10-16T03:43:31.564Z,101758.56
2022-10-16T03:46:03.825Z,101756.39
2022-10-16T03:48:38.709Z,101751.64
2022-10-16T03:51:10.873Z,101748.20
2022-10-16T03:53:42.992Z,101745.93
2022-10-16T03:56:15.202Z,101750.07
2022-10-16T03:58:47.376Z,101746.38
2022-10-16T04:01:19.672Z,101746.73
2022-10-16T04:03:51.880Z,101748.57
2022-10-16T04:06:24.251Z,101752.18
2022-10-16T04:08:56.369Z,101751.75
2022-10-16T04:11:28.545Z,101759.04
2022-10-16T04:14:00.700Z,101761.91
2022-10-16T04:16:32.985Z,101768.20
2022-10-16T04:19:05.126Z,101768.02
2022-10-16T04:21:37.400Z,101765.55
2022-10-16T04:24:09.562Z,101770.96
2022-10-16T04:26:41.704Z,101774.48
2022-10-16T04:29:13.817Z,101773.61
2022-10-16T04:31:45.973Z,101774.25
2022-10-16T04:34:18.116Z,101774.45
2022-10-16T04:36:52.395Z,101776.60
2022-10-16T04:39:24.730Z,101773.11
2022-10-16T04:41:56.966Z,101776.13
2022-10-16T04:44:29.061Z,101779.30
2022-10-16T04:47:01.254Z,101785.67
2022-10-16T04:49:33.447Z,101788.62
2022-10-16T04:52:06.158Z,101790.95
2022-10-16T04:54:38.284Z,101789.84
2022-10-16T04:57:10.481Z,101796.29
2022-10-16T04:59:42.625Z,101801.23
2022-10-16T05:02:14.819Z,101806.45
2022-10-16T05:04:47.030Z,101806.42
2022-10-16T05:07:19.255Z,101810.15
2022-10-16T05:09:51.433Z,101816.92
2022-10-16T05:12:23.694Z,101820.40
2022-10-16T05:14:59.656Z,101823.94
2022-10-16T05:17:32.272Z,101820.10
2022-10-16T05:20:05.021Z,101817.48
2022-10-16T05:22:37.217Z,101823.59
2022-10-16T05:25:10.540Z,101828.84
2022-10-16T05:27:42.648Z,101828.64
2022-10-16T05:30:14.975Z,101834.52
2022-10-16T05:32:50.508Z,101837.27
2022-10-16T05:35:23.345Z,101845.38
2022-10-16T05:37:56.678Z,101848.59
2022-10-16T05:40:28.975Z,101850.64
2022-10-16T05:43:01.197Z,101849.82
2022-10-16T05:45:33.306Z,101850.59
2022-10-16T05:48:05.732Z,101852.81
2022-10-16T05:50:37.928Z,101856.19
2022-10-16T05:53:10.040Z,101862.59
2022-10-16T05:55:42.263Z,101864.54
2022-10-16T05:58:14.437Z,101862.00
2022-10-16T06:00:46.623Z,101861.84
2022-10-16T06:03:18.857Z,101865.98
2022-10-16T06:05:51.190Z,101872.52
2022-10-16T06:08:25.020Z,101877.39
2022-10-16T06:11:06.604Z,101883.29
2022-10-16T06:13:40.120Z,101890.86
2022-10-16T06:16:12.977Z,101895.36
2022-10-16T06:18:45.437Z,101892.51
2022-10-16T06:21:21.331Z,101893.67
2022-10-16T06:23:54.133Z,101900.56
2022-10-16T06:26:27.793Z,101900.90
2022-10-16T06:29:01.776Z,101899.94
2022-10-16T06:31:34.580Z,101902.96
2022-10-16T06:34:10.477Z,101897.32
2022-10-16T06:36:44.471Z,101899.65
2022-10-16T06:39:16.589Z,101903.77
2022-10-16T06:41:48.857Z,101907.17
2022-10-16T06:44:21.085Z,101908.41
2022-10-16T06:46:53.329Z,101910.00
2022-10-16T06:49:25.599Z,101915.21
2022-10-16T06:51:57.766Z,101919.92
2022-10-16T06:54:29.976Z,101924.91
2022-10-16T06:57:02.921Z,101927.08
2022-10-16T06:59:35.028Z,101927.04
2022-10-16T07:02:08.194Z,101925.91
2022-10-16T07:04:42.422Z,101924.86
2022-10-16T07:07:14.622Z,101923.88
2022-10-16T07:09:46.745Z,101921.14
2022-10-16T07:12:18.885Z,101921.60
2022-10-16T07:14:53.253Z,101923.20
2022-10-16T07:17:25.385Z,101922.08
2022-10-16T07:19:57.483Z,101925.62
2022-10-16T07:22:30.428Z,101930.77
2022-10-16T07:25:02.532Z,101930.67
2022-10-16T07:27:34.730Z,101932.37
2022-10-16T07:30:09.213Z,101934.12
2022-10-16T07:32:41.784Z,101930.31
2022-10-16T07:35:14.067Z,101927.98
2022-10-16T07:37:49.471Z,101924.40
2022-10-16T07:40:21.657Z,101924.48
2022-10-16T07:42:53.766Z,101922.33
2022-10-16T07:45:25.933Z,101921.92
2022-10-16T07:47:58.036Z,101922.84
2022-10-16T07:50:30.157Z,101921.36
2022-10-16T07:53:02.373Z,101919.24
2022-10-16T07:55:35.779Z,101918.23
2022-10-16T07:58:08.423Z,101919.79
2022-10-16T08:00:41.341Z,101915.95
2022-10-16T08:03:13.500Z,101916.41
2022-10-16T08:05:45.745Z,101914.67
2022-10-16T08:08:19.885Z,101922.84
2022-10-16T08:10:52.252Z,101924.41
2022-10-16T08:13:25.036Z,101926.14
2022-10-16T08:15:57.896Z,101925.14
2022-10-16T08:18:30.234Z,101927.64
2022-10-16T08:21:03.054Z,101931.48
2022-10-16T08:23:36.849Z,101931.91
2022-10-16T08:26:10.412Z,101933.39
2022-10-16T08:28:42.943Z,101938.39
2022-10-16T08:33:55.139Z,101936.96
2022-10-16T08:36:27.317Z,101936.69
2022-10-16T08:38:59.495Z,101936.98
2022-10-16T08:42:06.532Z,101936.66
2022-10-16T08:45:17.273Z,101941.94
2022-10-16T08:47:56.939Z,101942.06
2022-10-16T08:50:34.406Z,101943.45
2022-10-16T08:53:09.022Z,101939.37
2022-10-16T08:55:47.653Z,101939.27
2022-10-16T08:58:22.095Z,101937.37
2022-10-16T09:00:58.352Z,101930.60
2022-10-16T09:03:45.900Z,101933.80
2022-10-16T09:06:29.119Z,101938.55
2022-10-16T09:09:18.185Z,101935.92
2022-10-16T09:11:56.065Z,101936.43
2022-10-16T09:14:42.669Z,101934.33
2022-10-16T09:17:29.643Z,101937.04
2022-10-16T09:20:16.069Z,101935.70
2022-10-16T09:22:48.541Z,101930.27
2022-10-16T09:25:23.171Z,101931.40
2022-10-16T09:27:57.992Z,101930.04
2022-10-16T09:30:31.858Z,101928.55
2022-10-16T09:33:05.177Z,101924.86
2022-10-16T09:35:41.003Z,101930.80
2022-10-16T09:38:25.366Z,101926.20
2022-10-16T09:41:03.152Z,101927.53
2022-10-16T09:43:41.747Z,101928.07
2022-10-16T09:46:27.133Z,101930.06
2022-10-16T09:49:01.751Z,101926.05
2022-10-16T09:51:36.572Z,101927.69
2022-10-16T09:54:19.018Z,101924.55
2022-10-16T09:56:53.142Z,101922.16
2022-10-16T09:59:27.789Z,101916.23
2022-10-16T10:02:04.616Z,101914.86
2022-10-16T10:04:47.144Z,101909.89
2022-10-16T10:07:29.935Z,101903.98
2022-10-16T10:10:03.543Z,101902.39
2022-10-16T10:12:37.680Z,101900.75
2022-10-16T10:15:14.240Z,101903.93
2022-10-16T10:17:52.916Z,101903.92
2022-10-16T10:20:32.171Z,101898.10
2022-10-16T10:23:21.569Z,101897.65
2022-10-16T10:26:01.956Z,101893.40
2022-10-16T10:28:49.381Z,101891.26
2022-10-16T10:31:29.638Z,101890.86
2022-10-16T10:34:20.671Z,101891.52
2022-10-16T10:37:04.818Z,101888.23
2022-10-16T10:39:44.186Z,101887.77
2022-10-16T10:42:28.776Z,101888.27
2022-10-16T10:45:19.303Z,101888.00
2022-10-16T10:48:08.700Z,101886.20
2022-10-16T10:50:45.360Z,101887.40
2022-10-16T10:53:28.871Z,101886.90
2022-10-16T10:56:10.948Z,101887.41
2022-10-16T10:59:04.336Z,101886.91
2022-10-16T11:01:47.129Z,101881.62
2022-10-16T11:04:52.108Z,101875.25
2022-10-16T11:07:29.995Z,101870.86
2022-10-16T11:10:08.229Z,101870.65
2022-10-16T11:12:45.067Z,101875.95
2022-10-16T11:15:21.155Z,101870.92
2022-10-16T11:17:59.990Z,101872.85
2022-10-16T11:20:34.734Z,101871.14
2022-10-16T11:23:15.730Z,101867.54
2022-10-16T11:25:51.144Z,101862.23
2022-10-16T11:28:30.964Z,101862.71
2022-10-16T11:31:10.749Z,101862.02
2022-10-16T11:33:48.144Z,101860.35
2022-10-16T11:36:26.708Z,101857.95
2022-10-16T11:39:05.782Z,101863.63
2022-10-16T11:41:44.621Z,101859.81
2022-10-16T11:44:34.867Z,101864.77
2022-10-16T11:47:46.612Z,101860.55
2022-10-16T11:50:24.687Z,101856.35
2022-10-16T11:53:03.875Z,101856.45
2022-10-16T11:55:41.866Z,101855.02
2022-10-16T11:58:26.301Z,101858.24
2022-10-16T12:01:05.836Z,101857.13
2022-10-16T12:03:50.674Z,101862.00
2022-10-16T12:06:37.290Z,101860.52
2022-10-16T12:09:15.595Z,101859.92
2022-10-16T12:11:47.736Z,101850.80
2022-10-16T12:15:03.792Z,101856.55
2022-10-16T12:17:43.184Z,101859.86
2022-10-16T12:20:33.108Z,101858.48
2022-10-16T12:23:07.461Z,101854.14
2022-10-16T12:25:47.632Z,101853.00
2022-10-16T12:28:28.572Z,101850.52
2022-10-16T12:31:03.868Z,101849.37
2022-10-16T12:33:37.773Z,101851.19
2022-10-16T12:36:15.934Z,101853.73
2022-10-16T12:38:54.403Z,101858.27
2022-10-16T12:41:31.521Z,101859.20
2022-10-16T12:44:03.936Z,101862.84
2022-10-16T12:46:43.325Z,101863.79
2022-10-16T12:49:39.690Z,101862.77
2022-10-16T12:52:30.245Z,101865.39
2022-10-16T12:55:02.675Z,101866.70
2022-10-16T12:57:54.025Z,101866.36
2022-10-16T13:00:33.735Z,101868.04
2022-10-16T13:03:39.080Z,101869.48
2022-10-16T13:06:21.387Z,101867.63
2022-10-16T13:09:10.303Z,101866.39
2022-10-16T13:12:08.265Z,101868.10
2022-10-16T13:15:04.989Z,101869.31
2022-10-16T13:17:44.965Z,101869.27
2022-10-16T13:20:23.780Z,101875.29
2022-10-16T13:23:05.977Z,101875.23
2022-10-16T13:25:53.288Z,101870.46
2022-10-16T13:28:30.746Z,101871.27
2022-10-16T13:31:04.944Z,101867.92
2022-10-16T13:33:41.578Z,101873.98
2022-10-16T13:36:24.949Z,101871.55
2022-10-16T13:39:14.900Z,101870.64
2022-10-16T13:41:47.770Z,101874.59
2022-10-16T13:44:23.006Z,101877.88
2022-10-16T13:47:03.923Z,101879.27
2022-10-16T13:49:36.701Z,101883.88
2022-10-16T13:52:19.068Z,101884.52
2022-10-16T13:54:51.388Z,101886.83
2022-10-16T13:57:27.719Z,101890.45
2022-10-16T14:00:00.253Z,101890.91
2022-10-16T14:02:36.408Z,101894.21
2022-10-16T14:05:14.465Z,101895.55
2022-10-16T14:07:51.132Z,101897.48
2022-10-16T14:10:31.102Z,101895.95
2022-10-16T14:13:05.771Z,101898.00
2022-10-16T14:15:39.416Z,101898.27
2022-10-16T14:18:23.753Z,101897.80
2022-10-16T14:21:00.873Z,101898.83
2022-10-16T14:23:36.601Z,101900.80
2022-10-16T14:26:21.249Z,101905.02
2022-10-16T14:29:07.113Z,101907.87
2022-10-16T14:31:40.887Z,101904.80
2022-10-16T14:34:28.592Z,101908.66
2022-10-16T14:39:41.803Z,101911.85
2022-10-16T14:42:20.295Z,101913.02
2022-10-16T14:44:53.928Z,101916.01
2022-10-16T14:47:28.987Z,101921.21
2022-10-16T14:50:01.257Z,101919.11
2022-10-16T14:52:33.384Z,101921.05
2022-10-16T14:55:05.854Z,101923.89
2022-10-16T14:57:40.758Z,101924.23
2022-10-16T15:00:22.144Z,101932.94
2022-10-16T15:02:54.605Z,101935.05
2022-10-16T15:05:28.343Z,101936.22
2022-10-16T15:08:00.447Z,101935.25
2022-10-16T15:10:33.772Z,101934.86
2022-10-16T15:13:06.063Z,101935.11
2022-10-16T15:15:43.909Z,101937.94
2022-10-16T15:18:21.230Z,101938.35
2022-10-16T15:20:55.139Z,101940.89
2022-10-16T15:23:27.437Z,101942.98
2022-10-16T15:26:00.585Z,101941.67
2022-10-16T15:28:32.978Z,101944.08
2022-10-16T15:31:06.647Z,101944.86
2022-10-16T15:33:40.027Z,101942.91
2022-10-16T15:36:13.307Z,101947.27
2022-10-16T15:38:46.540Z,101952.20
2022-10-16T15:41:18.664Z,101958.77
2022-10-16T15:43:52.004Z,101961.77
2022-10-16T15:46:27.651Z,101967.63
2022-10-16T15:48:59.609Z,101970.33
2022-10-16T15:51:34.163Z,101974.50
2022-10-16T15:54:06.800Z,101971.73
2022-10-16T15:56:39.070Z,101979.43
2022-10-16T15:59:11.505Z,101985.33
2022-10-16T16:01:44.024Z,101992.74
2022-10-16T16:04:42.213Z,101999.77
2022-10-16T16:07:10.046Z,102002.30
2022-10-16T16:09:42.423Z,102006.05
2022-10-16T16:12:14.591Z,102004.72
2022-10-16T16:14:49.765Z,102008.65
2022-10-16T16:17:21.915Z,102009.30
2022-10-16T16:19:54.140Z,102010.38
2022-10-16T16:22:27.149Z,102009.06
2022-10-16T16:24:59.560Z,102008.20
2022-10-16T16:27:34.595Z,102008.40
2022-10-16T16:30:08.406Z,102011.02
2022-10-16T16:32:40.752Z,102012.30
2022-10-16T16:35:13.298Z,102011.52
2022-10-16T16:37:45.456Z,102014.42
2022-10-16T16:40:17.778Z,102015.38
2022-10-16T16:42:51.488Z,102018.63
2022-10-16T16:45:23.724Z,102025.66
2022-10-16T16:47:55.859Z,102032.06
2022-10-16T16:50:27.996Z,102031.17
2022-10-16T16:53:00.588Z,102034.86
2022-10-16T16:55:32.794Z,102037.17
2022-10-16T16:58:05.731Z,102039.58
2022-10-16T17:00:37.851Z,102039.34
2022-10-16T17:03:10.937Z,102042.58
2022-10-16T17:05:43.541Z,102039.13
2022-10-16T17:08:16.790Z,102048.93
2022-10-16T17:10:53.735Z,102058.23
2022-10-16T17:13:26.929Z,102058.30
2022-10-16T17:15:59.635Z,102051.31
2022-10-16T17:18:31.792Z,102058.73
2022-10-16T17:21:05.441Z,102056.98
2022-10-16T17:23:39.169Z,102056.42
2022-10-16T17:26:13.434Z,102056.86
2022-10-16T17:28:46.392Z,102055.66
2022-10-16T17:31:21.104Z,102059.07
2022-10-16T17:33:53.424Z,102062.70
2022-10-16T17:36:29.744Z,102063.41
2022-10-16T17:39:04.681Z,102067.67
2022-10-16T17:41:38.433Z,102073.77
2022-10-16T17:44:13.593Z,102074.57
2022-10-16T17:46:45.824Z,102075.65
2022-10-16T17:49:18.457Z,102078.64
2022-10-16T17:51:53.437Z,102080.54
2022-10-16T17:54:25.682Z,102081.59
2022-10-16T17:56:57.873Z,102076.25
2022-10-16T17:59:30.124Z,102080.92
2022-10-16T18:02:02.318Z,102085.30
2022-10-16T18:04:34.581Z,102085.79
2022-10-16T18:07:06.737Z,102089.64
2022-10-16T18:09:49.558Z,102087.45
2022-10-16T18:12:31.225Z,102089.13
2022-10-16T18:15:03.541Z,102091.11
2022-10-16T18:17:39.004Z,102090.56
2022-10-16T18:20:12.951Z,102094.44
2022-10-16T18:22:45.096Z,102094.03
2022-10-16T18:25:17.329Z,102096.94
2022-10-16T18:27:49.505Z,102096.33
2022-10-16T18:30:22.744Z,102096.00
2022-10-16T18:32:55.000Z,102098.39
2022-10-16T18:35:27.257Z,102099.45
2022-10-16T18:38:00.780Z,102107.77
2022-10-16T18:40:33.015Z,102108.92
2022-10-16T18:43:05.077Z,102109.15
2022-10-16T18:45:37.410Z,102110.05
2022-10-16T18:48:10.206Z,102110.90
2022-10-16T18:50:42.333Z,102115.84
2022-10-16T18:53:15.208Z,102119.04
2022-10-16T18:55:54.439Z,102121.77
2022-10-16T18:58:26.639Z,102120.13
2022-10-16T19:01:03.827Z,102127.22
2022-10-16T19:03:36.173Z,102127.40
2022-10-16T19:06:10.730Z,102134.02
2022-10-16T19:08:44.264Z,102139.08
2022-10-16T19:11:18.906Z,102142.84
2022-10-16T19:13:52.181Z,102144.30
2022-10-16T19:16:26.815Z,102147.34
2022-10-16T19:19:01.134Z,102139.94
2022-10-16T19:21:35.958Z,102152.61
2022-10-16T19:24:09.543Z,102157.42
2022-10-16T19:26:42.274Z,102158.60
2022-10-16T19:29:14.963Z,102145.90
2022-10-16T19:31:47.109Z,102169.42
2022-10-16T19:34:19.218Z,102172.08
2022-10-16T19:36:54.257Z,102175.70
2022-10-16T19:39:26.544Z,102174.71
2022-10-16T19:41:58.692Z,102176.17
2022-10-16T19:44:30.863Z,102178.30
2022-10-16T19:47:03.193Z,102178.23
2022-10-16T19:49:35.370Z,102184.22
2022-10-16T19:52:07.599Z,102184.20
2022-10-16T19:54:39.743Z,102186.11
2022-10-16T19:57:12.025Z,102188.77
2022-10-16T19:59:45.663Z,102186.45
2022-10-16T20:02:18.153Z,102188.97
2022-10-16T20:04:50.237Z,102195.09
2022-10-16T20:07:23.597Z,102195.14
2022-10-16T20:09:57.014Z,102194.65
2022-10-16T20:12:29.424Z,102197.10
2022-10-16T20:15:02.232Z,102198.95
2022-10-16T20:17:34.360Z,102199.95
2022-10-16T20:20:07.697Z,102204.46
2022-10-16T20:22:39.844Z,102204.51
2022-10-16T20:25:15.487Z,102203.57
2022-10-16T20:27:50.862Z,102204.79
2022-10-16T20:30:22.961Z,102206.98
2022-10-16T20:32:56.847Z,102208.33
2022-10-16T20:35:29.139Z,102209.25
2022-10-16T20:38:01.272Z,102209.45
2022-10-16T20:40:35.085Z,102208.75
2022-10-16T20:43:08.823Z,102213.64
2022-10-16T20:45:41.052Z,102210.73
2022-10-16T20:48:14.004Z,102209.44
2022-10-16T20:50:46.138Z,102214.56
2022-10-16T20:53:18.332Z,102216.58
2022-10-16T20:55:50.466Z,102221.93
2022-10-16T20:58:22.585Z,102224.81
2022-10-16T21:00:54.752Z,102224.77
2022-10-16T21:03:26.948Z,102226.93
2022-10-16T21:06:00.095Z,102228.31
2022-10-16T21:08:35.521Z,102232.11
2022-10-16T21:11:15.395Z,102230.73
2022-10-16T21:13:48.332Z,102232.40
2022-10-16T21:16:20.684Z,102235.61
2022-10-16T21:18:53.790Z,102239.33
2022-10-16T21:21:27.592Z,102244.99
2022-10-16T21:24:01.814Z,102249.59
2022-10-16T21:26:34.489Z,102246.73
2022-10-16T21:29:08.553Z,102248.75
2022-10-16T21:31:41.469Z,102251.27
2022-10-16T21:34:13.729Z,102256.67
2022-10-16T21:36:45.840Z,102256.33
2022-10-16T21:39:21.215Z,102255.66
2022-10-16T21:41:53.561Z,102248.59
2022-10-16T21:44:25.665Z,102250.69
2022-10-16T21:46:57.823Z,102255.92
2022-10-16T21:49:30.189Z,102261.01
2022-10-16T21:52:02.312Z,102262.54
2022-10-16T21:54:34.903Z,102267.84
2022-10-16T21:57:07.254Z,102265.27
2022-10-16T21:59:39.526Z,102268.61
2022-10-16T22:02:11.629Z,102266.96
2022-10-16T22:04:43.766Z,102270.64
2022-10-16T22:07:15.965Z,102273.66
2022-10-16T22:09:48.143Z,102278.45
2022-10-16T22:12:20.767Z,102279.89
2022-10-16T22:14:53.032Z,102280.34
2022-10-16T22:17:25.474Z,102282.45
2022-10-16T22:19:57.930Z,102283.38
2022-10-16T22:22:30.035Z,102280.96
2022-10-16T22:25:02.169Z,102283.02
2022-10-16T22:27:34.284Z,102283.22
2022-10-16T22:30:07.153Z,102285.70
2022-10-16T22:32:39.557Z,102289.69
2022-10-16T22:35:12.839Z,102290.02
2022-10-16T22:37:46.698Z,102292.91
2022-10-16T22:40:18.976Z,102295.10
2022-10-16T22:42:51.138Z,102302.11
2022-10-16T22:45:23.297Z,102303.35
2022-10-16T22:47:55.434Z,102308.58
2022-10-16T22:50:28.078Z,102305.23
2022-10-16T22:53:00.232Z,102306.88
2022-10-16T22:55:32.424Z,102307.13
2022-10-16T22:58:04.492Z,102309.02
2022-10-16T23:00:36.777Z,102306.23
2022-10-16T23:03:09.000Z,102309.55
2022-10-16T23:05:43.662Z,102311.65
2022-10-16T23:08:15.826Z,102308.81
2022-10-16T23:10:49.861Z,102306.59
2022-10-16T23:13:21.966Z,102305.74
2022-10-16T23:15:54.120Z,102307.02
2022-10-16T23:18:26.273Z,102310.31
2022-10-16T23:20:58.413Z,102320.84
2022-10-16T23:23:30.563Z,102325.30
2022-10-16T23:26:02.813Z,102331.35
2022-10-16T23:28:35.019Z,102332.55
2022-10-16T23:31:09.208Z,102338.41
2022-10-16T23:33:42.403Z,102339.95
2022-10-16T23:36:16.907Z,102341.41
2022-10-16T23:38:50.303Z,102342.52
2022-10-16T23:41:23.100Z,102335.18
2022-10-16T23:43:55.296Z,102334.95
2022-10-16T23:46:27.439Z,102334.31
2022-10-16T23:48:59.590Z,102333.54
2022-10-16T23:51:31.764Z,102334.39
2022-10-16T23:54:04.010Z,102335.85
2022-10-16T23:56:36.118Z,102336.73
2022-10-16T23:59:08.266Z,102337.23
